Time;durP1;ratioP1;P1;durP2;ratioP2;P2;SDS_P1;SDS_P2;PMS_P1;PMS_P2;Temp;Humidity;BMP_temperature;BMP_pressure;BME280_temperature;BME280_humidity;BME280_pressure;Samples;Min_cycle;Max_cycle;Signal;HPM_P1;HPM_P2
2023/12/11 00:01:10;;;;;;;16.73;7.90;;;;;;;2.88;79.69;95148.50;5086658;28;20028;-81
2023/12/11 00:03:35;;;;;;;16.20;7.85;;;;;;;2.83;79.81;95169.31;5114944;28;20070;-81
2023/12/11 00:06:02;;;;;;;15.88;8.10;;;;;;;3.14;80.54;95214.59;5077481;28;20059;-82
2023/12/11 00:08:27;;;;;;;14.30;7.97;;;;;;;3.29;80.38;95222.81;5090508;28;20511;-82
2023/12/11 00:10:53;;;;;;;14.05;8.07;;;;;;;2.85;80.51;95167.28;5092487;28;20048;-81
2023/12/11 00:13:18;;;;;;;16.45;8.07;;;;;;;3.20;80.89;95232.06;5093773;28;20040;-80
2023/12/11 00:15:44;;;;;;;16.92;8.10;;;;;;;2.83;80.68;95153.59;5092591;28;20036;-81
2023/12/11 00:18:09;;;;;;;17.35;8.82;;;;;;;2.77;80.44;95144.03;5093527;28;20024;-81
2023/12/11 00:20:35;;;;;;;16.98;8.60;;;;;;;3.14;80.54;95210.16;5091778;28;20028;-81
2023/12/11 00:23:00;;;;;;;14.75;7.93;;;;;;;3.32;80.86;95248.59;5091888;28;20024;-81
2023/12/11 00:25:32;;;;;;;16.95;8.88;;;;;;;3.18;80.71;95216.56;5113276;28;20130;-81
2023/12/11 00:27:57;;;;;;;19.95;9.23;;;;;;;2.83;80.93;95158.84;5113736;28;20039;-81
2023/12/11 00:30:23;;;;;;;17.02;8.00;;;;;;;2.74;81.22;95164.66;5094530;28;20616;-80
2023/12/11 00:32:48;;;;;;;17.33;9.43;;;;;;;3.03;81.28;95197.84;5112772;28;20489;-81
2023/12/11 00:35:14;;;;;;;19.55;8.93;;;;;;;3.37;81.01;95249.50;5113481;28;20051;-81
2023/12/11 00:37:40;;;;;;;23.35;9.63;;;;;;;3.35;80.96;95242.91;5098736;28;20126;-81
2023/12/11 00:40:06;;;;;;;18.63;10.30;;;;;;;2.82;81.15;95156.47;5090178;28;20034;-81
2023/12/11 00:42:32;;;;;;;20.10;9.50;;;;;;;3.06;80.88;95198.19;5074049;28;20033;-81
2023/12/11 00:44:58;;;;;;;18.38;9.23;;;;;;;3.21;80.23;95199.56;5088432;28;20108;-81
2023/12/11 00:47:23;;;;;;;19.35;9.10;;;;;;;3.35;80.03;95203.59;5112657;28;20677;-81
2023/12/11 00:49:49;;;;;;;14.20;8.32;;;;;;;3.13;79.99;95177.09;5112406;28;20540;-81
2023/12/11 00:52:14;;;;;;;21.20;9.40;;;;;;;3.19;80.25;95191.94;5089266;28;20465;-81
2023/12/11 00:54:40;;;;;;;18.80;8.90;;;;;;;3.31;80.36;95207.66;5071126;28;20127;-81
2023/12/11 00:57:05;;;;;;;16.08;9.05;;;;;;;3.19;80.15;95184.09;5089089;28;20093;-81
2023/12/11 00:59:31;;;;;;;16.92;8.63;;;;;;;3.36;80.29;95211.19;5092296;28;20050;-81
2023/12/11 01:01:56;;;;;;;16.48;9.40;;;;;;;3.64;80.43;95249.88;5092836;28;20414;-81
2023/12/11 01:04:22;;;;;;;16.70;9.38;;;;;;;3.68;79.79;95224.75;5092897;28;20434;-81
2023/12/11 01:06:47;;;;;;;17.83;9.05;;;;;;;3.68;79.32;95232.63;5092530;28;20063;-78
2023/12/11 01:09:13;;;;;;;19.10;8.88;;;;;;;2.96;79.18;95132.47;5073382;28;20044;-78
2023/12/11 01:11:39;;;;;;;17.17;9.38;;;;;;;3.24;79.06;95170.28;5071508;28;20033;-78
2023/12/11 01:14:05;;;;;;;16.08;8.45;;;;;;;3.36;79.33;95187.59;5070963;28;20061;-78
2023/12/11 01:16:30;;;;;;;15.48;8.82;;;;;;;3.45;79.66;95216.91;5111423;28;20046;-78
2023/12/11 01:18:56;;;;;;;17.92;8.88;;;;;;;3.36;79.49;95203.31;5112804;28;20412;-79
2023/12/11 01:21:21;;;;;;;17.33;8.57;;;;;;;3.44;80.10;95223.16;5093180;28;20484;-78
2023/12/11 01:23:47;;;;;;;15.75;7.95;;;;;;;3.43;79.84;95218.97;5094556;28;20020;-78
2023/12/11 01:26:12;;;;;;;18.60;8.85;;;;;;;3.25;80.12;95195.47;5092191;28;20110;-78
2023/12/11 01:28:38;;;;;;;18.65;9.05;;;;;;;3.32;80.30;95210.06;5112459;28;20063;-78
2023/12/11 01:31:04;;;;;;;18.08;8.60;;;;;;;3.49;79.43;95224.09;5090877;28;20125;-78
2023/12/11 01:33:29;;;;;;;15.10;8.05;;;;;;;3.26;80.03;95197.88;5090348;28;20061;-79
2023/12/11 01:35:55;;;;;;;16.50;8.32;;;;;;;3.59;80.22;95236.63;5098163;28;20115;-78
2023/12/11 01:38:20;;;;;;;14.82;8.90;;;;;;;3.73;79.71;95247.69;5084611;28;20028;-78
2023/12/11 01:40:46;;;;;;;18.40;9.52;;;;;;;3.47;79.50;95199.94;5091221;28;20136;-78
2023/12/11 01:43:16;;;;;;;20.42;10.13;;;;;;;3.50;79.06;95206.53;5110569;28;20474;-78
2023/12/11 01:45:42;;;;;;;15.73;8.48;;;;;;;3.69;79.28;95220.31;5091107;28;20438;-78
2023/12/11 01:48:09;;;;;;;14.43;8.00;;;;;;;3.50;79.28;95196.06;5094336;28;20028;-78
2023/12/11 01:50:35;;;;;;;20.13;8.63;;;;;;;3.54;79.36;95189.31;5087343;28;20047;-78
2023/12/11 01:53:01;;;;;;;15.18;8.38;;;;;;;3.76;78.98;95226.25;5091212;28;20024;-78
2023/12/11 01:55:28;;;;;;;17.45;8.93;;;;;;;3.54;79.06;95199.81;5074687;28;20097;-79
2023/12/11 01:57:54;;;;;;;17.67;8.77;;;;;;;3.67;78.67;95199.56;5111589;28;20554;-78
2023/12/11 02:00:20;;;;;;;19.35;8.43;;;;;;;3.60;79.14;95198.88;5109750;28;20090;-79
2023/12/11 02:02:46;;;;;;;17.33;8.75;;;;;;;3.70;78.91;95225.34;5090748;28;20422;-78
2023/12/11 02:05:11;;;;;;;16.98;8.63;;;;;;;3.74;79.13;95223.84;5104933;28;20032;-79
2023/12/11 02:07:40;;;;;;;15.07;7.60;;;;;;;3.80;78.82;95219.53;5070984;28;20089;-78
2023/12/11 02:10:07;;;;;;;14.48;7.20;;;;;;;3.74;78.83;95230.91;5070565;28;20576;-79
2023/12/11 02:12:33;;;;;;;14.52;7.78;;;;;;;3.40;79.25;95187.97;5070230;28;20064;-78
2023/12/11 02:14:58;;;;;;;13.45;6.82;;;;;;;3.75;78.67;95220.19;5070555;28;20043;-78
2023/12/11 02:17:24;;;;;;;13.68;7.65;;;;;;;3.63;78.84;95200.25;5095284;28;20036;-81
2023/12/11 02:19:49;;;;;;;16.52;7.72;;;;;;;3.82;78.54;95220.06;5120761;28;20031;-81
2023/12/11 02:22:15;;;;;;;14.35;7.13;;;;;;;3.54;78.52;95176.22;5128378;28;20043;-81
2023/12/11 02:24:49;;;;;;;12.20;6.72;;;;;;;3.45;79.02;95182.81;5128769;28;20106;-81
2023/12/11 02:27:15;;;;;;;9.32;5.78;;;;;;;3.37;78.99;95189.19;5126978;28;20045;-81
2023/12/11 02:29:40;;;;;;;13.30;7.13;;;;;;;3.14;79.06;95170.84;5091214;28;20041;-81
2023/12/11 02:32:06;;;;;;;11.23;6.35;;;;;;;3.29;79.90;95201.84;5089033;28;20044;-81
2023/12/11 02:34:32;;;;;;;13.85;6.75;;;;;;;3.00;80.12;95153.75;5111841;28;20032;-81
2023/12/11 02:36:57;;;;;;;12.10;6.43;;;;;;;3.36;79.91;95207.78;5130542;28;20035;-82
2023/12/11 02:39:23;;;;;;;12.75;7.25;;;;;;;3.31;80.01;95202.44;5110400;28;20039;-82
2023/12/11 02:41:48;;;;;;;13.27;7.68;;;;;;;2.99;79.91;95176.53;5109583;28;20107;-81
2023/12/11 02:44:14;;;;;;;13.40;6.90;;;;;;;3.11;80.40;95197.53;5111287;28;20513;-81
2023/12/11 02:46:39;;;;;;;14.32;7.22;;;;;;;3.04;80.33;95202.06;5107441;28;20032;-82
2023/12/11 02:49:05;;;;;;;15.45;7.78;;;;;;;3.16;80.48;95212.56;5110043;28;20032;-81
2023/12/11 02:51:30;;;;;;;16.02;7.25;;;;;;;2.92;80.40;95182.91;5111821;28;20130;-81
2023/12/11 02:53:56;;;;;;;17.88;7.15;;;;;;;2.76;80.49;95149.50;5109528;28;20052;-81
2023/12/11 02:56:22;;;;;;;14.57;7.20;;;;;;;3.12;80.62;95190.47;5130545;28;20114;-81
2023/12/11 02:58:47;;;;;;;13.75;7.78;;;;;;;3.07;80.41;95186.69;5130333;28;20032;-81
2023/12/11 03:01:13;;;;;;;12.65;7.22;;;;;;;3.35;80.54;95227.97;5095394;28;20025;-81
2023/12/11 03:03:38;;;;;;;12.38;6.13;;;;;;;2.89;80.15;95163.22;5088312;28;20037;-81
2023/12/11 03:06:06;;;;;;;13.27;7.55;;;;;;;3.26;80.25;95220.66;5106784;28;20460;-82
2023/12/11 03:08:31;;;;;;;11.27;6.25;;;;;;;3.13;79.89;95195.44;5110415;28;20044;-81
2023/12/11 03:10:57;;;;;;;12.80;6.50;;;;;;;3.41;79.91;95237.53;5107551;28;20039;-81
2023/12/11 03:13:23;;;;;;;11.68;6.43;;;;;;;2.55;79.91;95099.28;5129617;28;20066;-81
2023/12/11 03:15:48;;;;;;;9.52;5.40;;;;;;;3.28;79.93;95229.88;5128952;28;20036;-81
2023/12/11 03:18:14;;;;;;;9.75;5.57;;;;;;;3.31;79.69;95231.25;5089338;28;20029;-81
2023/12/11 03:20:40;;;;;;;11.05;5.45;;;;;;;2.19;79.25;95034.81;5110697;28;20015;-81
2023/12/11 03:23:05;;;;;;;12.05;5.93;;;;;;;3.16;78.98;95181.09;5110198;28;20043;-81
2023/12/11 03:25:31;;;;;;;9.23;5.80;;;;;;;3.42;78.99;95212.94;5109789;28;20039;-81
2023/12/11 03:27:56;;;;;;;10.48;5.50;;;;;;;3.35;78.81;95211.44;5091275;28;20039;-78
2023/12/11 03:30:22;;;;;;;11.48;5.35;;;;;;;3.34;78.86;95222.94;5094462;28;20039;-79
2023/12/11 03:32:47;;;;;;;12.65;5.53;;;;;;;3.24;78.61;95207.78;5091306;28;20039;-79
2023/12/11 03:35:13;;;;;;;12.20;5.55;;;;;;;3.30;78.52;95204.25;5080195;28;20047;-80
2023/12/11 03:37:38;;;;;;;8.70;5.22;;;;;;;3.38;78.00;95190.00;5071178;28;20029;-78
2023/12/11 03:40:04;;;;;;;8.55;5.38;;;;;;;3.41;77.55;95185.13;5070988;28;20071;-78
2023/12/11 03:42:30;;;;;;;10.95;6.55;;;;;;;3.26;77.63;95155.94;5092431;28;20112;-78
2023/12/11 03:44:57;;;;;;;12.35;5.97;;;;;;;3.41;77.37;95171.22;5092379;28;20101;-78
2023/12/11 03:47:23;;;;;;;12.02;6.80;;;;;;;3.54;77.56;95191.13;5092290;28;20032;-78
2023/12/11 03:49:49;;;;;;;11.98;6.25;;;;;;;3.52;77.36;95185.31;5092493;28;20025;-78
2023/12/11 03:52:14;;;;;;;17.38;8.10;;;;;;;3.32;78.29;95183.06;5092508;28;20040;-78
2023/12/11 03:54:40;;;;;;;25.17;9.32;;;;;;;3.49;78.79;95191.84;5092013;28;20051;-78
2023/12/11 03:57:05;;;;;;;22.45;9.68;;;;;;;3.55;78.32;95195.34;5074661;28;20035;-78
2023/12/11 03:59:32;;;;;;;18.40;9.55;;;;;;;3.34;78.04;95150.34;5112912;28;20485;-78
2023/12/11 04:01:58;;;;;;;23.08;8.38;;;;;;;3.59;78.29;95193.88;5085338;28;20024;-80
2023/12/11 04:04:23;;;;;;;18.60;9.27;;;;;;;3.42;78.33;95186.72;5091094;28;20434;-78
2023/12/11 04:06:49;;;;;;;21.58;10.30;;;;;;;3.34;78.70;95175.75;5092698;28;20044;-78
2023/12/11 04:09:15;;;;;;;17.40;8.75;;;;;;;3.71;78.56;95215.66;5072796;28;20035;-78
2023/12/11 04:11:40;;;;;;;13.52;7.50;;;;;;;3.47;78.04;95181.56;5092593;28;20028;-78
2023/12/11 04:14:06;;;;;;;12.40;6.72;;;;;;;3.61;78.52;95197.06;5093028;28;20395;-78
2023/12/11 04:16:31;;;;;;;13.00;7.10;;;;;;;3.54;78.46;95197.19;5105083;28;20027;-78
2023/12/11 04:18:57;;;;;;;9.95;5.93;;;;;;;3.28;78.14;95138.13;5076513;28;20037;-78
2023/12/11 04:21:22;;;;;;;10.88;5.97;;;;;;;3.72;77.89;95220.66;5091849;28;20040;-78
2023/12/11 04:23:48;;;;;;;13.23;6.88;;;;;;;3.44;78.34;95183.84;5109573;28;20032;-78
2023/12/11 04:26:14;;;;;;;17.45;7.15;;;;;;;3.46;78.14;95166.06;5112840;28;20070;-78
2023/12/11 04:28:39;;;;;;;17.15;6.13;;;;;;;3.41;77.55;95147.63;5071056;28;20033;-78
2023/12/11 04:31:05;;;;;;;10.95;6.32;;;;;;;3.47;77.72;95172.91;5090234;28;20089;-78
2023/12/11 04:33:32;;;;;;;16.38;7.15;;;;;;;3.85;77.49;95225.66;5087807;28;20044;-78
2023/12/11 04:35:58;;;;;;;18.55;7.28;;;;;;;3.20;77.27;95140.34;5088175;28;20055;-78
2023/12/11 04:38:24;;;;;;;15.40;7.05;;;;;;;3.71;77.52;95208.59;5075312;28;20039;-79
2023/12/11 04:40:50;;;;;;;15.77;7.03;;;;;;;3.92;77.08;95224.75;5093496;28;20032;-78
2023/12/11 04:43:15;;;;;;;15.85;6.15;;;;;;;3.37;77.03;95138.59;5073532;28;20029;-79
2023/12/11 04:45:41;;;;;;;13.07;7.10;;;;;;;3.91;77.40;95225.78;5071966;28;20040;-78
2023/12/11 04:48:06;;;;;;;18.63;7.63;;;;;;;4.04;76.70;95215.03;5063648;28;20113;-78
2023/12/11 04:50:32;;;;;;;13.95;6.63;;;;;;;3.82;76.61;95205.13;5078215;28;20036;-79
2023/12/11 04:52:57;;;;;;;13.27;7.15;;;;;;;3.76;76.86;95215.75;5071650;28;20040;-78
2023/12/11 04:55:23;;;;;;;13.80;7.20;;;;;;;3.56;77.37;95175.97;5074680;28;20067;-78
2023/12/11 04:57:49;;;;;;;22.38;7.63;;;;;;;3.94;77.43;95227.94;5094429;28;20032;-79
2023/12/11 05:00:15;;;;;;;16.30;6.90;;;;;;;3.92;77.29;95222.91;5069910;28;20042;-79
2023/12/11 05:02:42;;;;;;;12.80;6.57;;;;;;;3.38;77.44;95155.91;5078136;28;20032;-82
2023/12/11 05:05:09;;;;;;;16.90;7.65;;;;;;;3.80;77.72;95215.09;5109287;28;20027;-82
2023/12/11 05:07:35;;;;;;;14.77;6.47;;;;;;;3.70;77.55;95204.34;5090920;28;20108;-82
2023/12/11 05:10:01;;;;;;;17.10;8.60;;;;;;;3.75;77.54;95201.84;5107719;28;20035;-82
2023/12/11 05:12:26;;;;;;;20.63;8.27;;;;;;;3.22;78.08;95140.88;5106181;28;20514;-82
2023/12/11 05:14:52;;;;;;;23.75;10.05;;;;;;;3.47;77.88;95175.53;5068835;28;20517;-81
2023/12/11 05:17:20;;;;;;;18.95;9.43;;;;;;;3.79;77.82;95223.97;5097393;28;20028;-81
2023/12/11 05:19:46;;;;;;;21.70;9.25;;;;;;;3.53;77.90;95182.47;5086802;28;20425;-81
2023/12/11 05:22:21;;;;;;;25.25;7.72;;;;;;;3.57;77.93;95173.13;5081080;28;20032;-82
2023/12/11 05:24:48;;;;;;;28.13;9.55;;;;;;;3.93;77.78;95226.34;5063622;28;20497;-80
2023/12/11 05:27:13;;;;;;;20.85;8.75;;;;;;;3.52;78.16;95175.63;5065682;28;20712;-81
2023/12/11 05:29:39;;;;;;;18.13;8.35;;;;;;;3.58;78.12;95203.59;5072478;28;20039;-79
2023/12/11 05:32:05;;;;;;;19.70;8.35;;;;;;;3.44;78.92;95192.50;5055467;28;20058;-79
2023/12/11 05:34:30;;;;;;;18.98;8.68;;;;;;;3.49;79.21;95200.50;5021400;28;20060;-79
2023/12/11 05:36:56;;;;;;;15.73;8.98;;;;;;;3.67;79.19;95217.91;5069471;27;20185;-79
2023/12/11 05:39:22;;;;;;;21.02;8.73;;;;;;;3.63;78.94;95216.78;5050564;28;20513;-79
2023/12/11 05:41:47;;;;;;;14.35;7.70;;;;;;;3.38;78.54;95179.50;5056561;28;20047;-79
2023/12/11 05:44:13;;;;;;;13.85;7.57;;;;;;;3.59;78.99;95220.88;5062216;28;20569;-79
2023/12/11 05:46:38;;;;;;;15.95;8.15;;;;;;;3.53;78.97;95218.38;5067787;28;20039;-80
2023/12/11 05:49:04;;;;;;;14.07;7.50;;;;;;;3.55;79.00;95232.88;5073046;27;20529;-80
2023/12/11 05:51:30;;;;;;;24.15;9.20;;;;;;;3.14;79.33;95156.94;5059285;28;20827;-80
2023/12/11 05:53:55;;;;;;;13.95;7.13;;;;;;;3.11;79.43;95147.72;5092736;27;20644;-81
2023/12/11 05:56:21;;;;;;;24.15;7.75;;;;;;;3.62;79.25;95233.56;5093153;28;20491;-81
2023/12/11 05:58:51;;;;;;;19.45;7.07;;;;;;;3.35;79.22;95199.13;5075908;28;20044;-81
2023/12/11 06:01:17;;;;;;;16.13;7.43;;;;;;;3.58;79.27;95248.16;5072797;28;20051;-80
2023/12/11 06:03:42;;;;;;;15.00;7.63;;;;;;;3.43;79.11;95224.97;5098768;27;20115;-79
2023/12/11 06:06:15;;;;;;;15.20;7.60;;;;;;;3.42;79.23;95226.03;5096840;27;20122;-80
2023/12/11 06:08:41;;;;;;;14.70;7.88;;;;;;;3.69;79.16;95257.84;5080605;27;20868;-80
2023/12/11 06:11:06;;;;;;;17.15;8.05;;;;;;;3.72;79.03;95254.78;5077954;27;20040;-80
2023/12/11 06:13:32;;;;;;;16.83;7.85;;;;;;;3.51;79.37;95215.97;5024689;27;20031;-80
2023/12/11 06:18:23;;;;;;;18.52;8.30;;;;;;;3.66;78.86;95273.25;4997225;27;20501;-81
2023/12/11 06:20:48;;;;;;;13.25;7.13;;;;;;;3.13;78.66;95184.19;5000266;28;20387;-81
2023/12/11 06:23:14;;;;;;;18.13;7.38;;;;;;;3.51;78.30;95217.84;4959311;28;20033;-79
2023/12/11 06:28:04;;;;;;;19.30;8.32;;;;;;;3.90;78.34;95251.19;4968488;27;20406;-77
2023/12/11 06:30:30;;;;;;;19.77;8.18;;;;;;;4.02;78.02;95264.31;4998361;27;20330;-81
2023/12/11 06:32:56;;;;;;;15.98;8.32;;;;;;;3.84;78.39;95263.44;5002883;27;20045;-79
2023/12/11 06:35:21;;;;;;;15.07;8.07;;;;;;;3.86;78.59;95269.25;5013113;28;20037;-79
2023/12/11 06:37:47;;;;;;;19.67;9.02;;;;;;;3.62;78.49;95220.44;5016714;28;20352;-79
2023/12/11 06:40:13;;;;;;;16.23;8.93;;;;;;;3.82;78.19;95235.81;5047311;27;20029;-79
2023/12/11 06:42:38;;;;;;;19.70;8.35;;;;;;;4.00;77.68;95248.00;5020054;28;20036;-79
2023/12/11 06:45:08;;;;;;;14.20;7.53;;;;;;;3.31;77.59;95161.28;5020726;27;20051;-80
2023/12/11 06:47:36;;;;;;;16.48;8.00;;;;;;;4.03;77.53;95258.84;5012688;27;20041;-79
2023/12/11 06:50:01;;;;;;;23.80;8.15;;;;;;;3.41;77.27;95176.44;5019345;28;20407;-79
2023/12/11 06:52:27;;;;;;;19.30;8.30;;;;;;;4.04;77.59;95268.34;5017813;28;20025;-79
2023/12/11 06:54:53;;;;;;;28.05;9.25;;;;;;;4.06;77.73;95244.47;5018295;28;20481;-80
2023/12/11 06:57:18;;;;;;;21.42;7.97;;;;;;;4.08;76.72;95250.28;5040112;27;20044;-79
2023/12/11 06:59:44;;;;;;;27.48;10.50;;;;;;;4.12;76.95;95246.94;5026907;27;20033;-79
2023/12/11 07:02:09;;;;;;;28.77;11.25;;;;;;;4.02;77.65;95235.47;5007968;28;20055;-79
2023/12/11 07:04:35;;;;;;;22.45;11.02;;;;;;;3.41;76.87;95129.25;5039042;27;20557;-79
2023/12/11 07:07:00;;;;;;;33.78;10.90;;;;;;;4.17;77.66;95285.66;5032582;28;20056;-80
2023/12/11 07:09:27;;;;;;;19.90;10.88;;;;;;;4.19;76.58;95278.34;5018537;27;20052;-78
2023/12/11 07:11:53;;;;;;;24.85;9.40;;;;;;;4.21;76.87;95273.66;4985937;27;20121;-81
2023/12/11 07:14:18;;;;;;;20.83;9.35;;;;;;;4.38;76.38;95294.72;4987354;27;20092;-81
2023/12/11 07:16:44;;;;;;;30.13;9.50;;;;;;;3.59;75.63;95173.69;4999765;27;20517;-80
2023/12/11 07:19:09;;;;;;;22.40;9.95;;;;;;;4.05;75.05;95253.34;5005419;28;20033;-80
2023/12/11 07:21:36;;;;;;;19.20;8.48;;;;;;;4.20;75.51;95299.09;5007050;27;20037;-82
2023/12/11 07:24:02;;;;;;;16.08;7.65;;;;;;;3.92;75.26;95246.53;5028030;28;20499;-80
2023/12/11 07:26:28;;;;;;;22.85;8.90;;;;;;;4.28;75.28;95297.94;5004827;28;20400;-81
2023/12/11 07:28:57;;;;;;;30.67;10.65;;;;;;;4.23;74.96;95301.28;5034095;28;20053;-81
2023/12/11 07:31:22;;;;;;;20.25;9.43;;;;;;;3.81;75.45;95229.00;5044629;28;20044;-81
2023/12/11 07:33:48;;;;;;;16.98;8.63;;;;;;;4.17;75.90;95296.94;5062886;27;20040;-81
2023/12/11 07:36:13;;;;;;;26.00;9.77;;;;;;;4.12;75.94;95286.31;5057889;27;20089;-80
2023/12/11 07:38:39;;;;;;;26.42;9.98;;;;;;;4.24;75.97;95307.31;5057748;27;20049;-81
2023/12/11 07:41:05;;;;;;;23.48;10.43;;;;;;;4.11;76.13;95289.19;5045384;27;20067;-81
2023/12/11 07:43:30;;;;;;;22.85;9.10;;;;;;;4.15;75.80;95280.63;5045157;28;20025;-80
2023/12/11 07:45:56;;;;;;;20.63;8.75;;;;;;;4.36;76.07;95315.97;5060029;28;20471;-78
2023/12/11 07:48:21;;;;;;;23.27;10.25;;;;;;;4.31;75.95;95330.81;5055508;27;20049;-81
2023/12/11 07:50:47;;;;;;;20.55;10.82;;;;;;;4.33;76.44;95326.16;5056180;27;20052;-81
2023/12/11 07:53:12;;;;;;;21.15;8.70;;;;;;;4.32;76.34;95320.09;5068457;27;20056;-80
2023/12/11 07:55:38;;;;;;;18.02;8.40;;;;;;;4.16;75.60;95286.66;5038751;28;20037;-81
2023/12/11 07:58:04;;;;;;;16.77;6.82;;;;;;;4.21;74.77;95298.06;5041076;27;20029;-80
2023/12/11 08:00:30;;;;;;;21.38;7.40;;;;;;;4.48;74.74;95337.78;5054890;27;20066;-81
2023/12/11 08:02:56;;;;;;;16.10;6.78;;;;;;;4.56;74.07;95312.97;5035252;27;20041;-81
2023/12/11 08:05:22;;;;;;;19.85;8.00;;;;;;;4.45;74.26;95288.31;5038431;27;20093;-80
2023/12/11 08:07:47;;;;;;;14.95;7.63;;;;;;;4.43;73.47;95300.09;5054765;27;20032;-81
2023/12/11 08:10:13;;;;;;;23.45;8.25;;;;;;;4.71;74.16;95330.88;5054673;27;20066;-79
2023/12/11 08:12:38;;;;;;;19.83;8.63;;;;;;;4.61;74.13;95308.63;5031076;27;20033;-79
2023/12/11 08:15:05;;;;;;;19.77;9.02;;;;;;;4.74;74.55;95322.50;5047929;27;20101;-79
2023/12/11 08:17:31;;;;;;;23.83;8.68;;;;;;;4.73;74.60;95326.19;5050905;27;20332;-78
2023/12/11 08:19:57;;;;;;;26.15;8.82;;;;;;;4.59;73.92;95289.66;5037003;27;20060;-78
2023/12/11 08:22:22;;;;;;;18.15;7.53;;;;;;;4.90;73.47;95329.66;5042006;27;20033;-79
2023/12/11 08:24:48;;;;;;;18.92;8.38;;;;;;;4.93;74.19;95330.00;5034455;27;20025;-79
2023/12/11 08:27:14;;;;;;;19.88;7.38;;;;;;;4.87;73.64;95323.06;5048682;27;20044;-78
2023/12/11 08:29:39;;;;;;;21.83;9.98;;;;;;;4.68;74.95;95273.53;5029845;28;20066;-79
2023/12/11 08:32:05;;;;;;;24.48;8.68;;;;;;;4.83;74.47;95307.97;5067291;27;20048;-78
2023/12/11 08:34:31;;;;;;;18.88;8.27;;;;;;;5.02;74.34;95318.06;5028743;28;20045;-79
2023/12/11 08:36:56;;;;;;;19.17;9.02;;;;;;;4.78;74.25;95286.84;5043390;28;20126;-78
2023/12/11 08:39:22;;;;;;;15.07;8.15;;;;;;;4.90;74.57;95321.75;5034503;27;20430;-79
2023/12/11 08:41:49;;;;;;;19.45;8.38;;;;;;;4.97;73.78;95332.94;5011411;28;20144;-78
2023/12/11 08:44:15;;;;;;;16.77;9.45;;;;;;;4.65;74.08;95275.56;5033604;27;20065;-79
2023/12/11 08:46:41;;;;;;;18.15;8.85;;;;;;;4.98;74.16;95319.56;5023451;27;20434;-79
2023/12/11 08:49:07;;;;;;;21.08;7.28;;;;;;;4.69;73.78;95277.75;5036345;27;20579;-79
2023/12/11 08:51:33;;;;;;;21.17;8.63;;;;;;;4.99;73.77;95310.66;5029903;27;20029;-81
2023/12/11 08:53:58;;;;;;;20.10;8.00;;;;;;;4.85;73.50;95271.75;5026221;28;20041;-81
2023/12/11 08:56:24;;;;;;;16.65;8.60;;;;;;;4.91;72.84;95271.59;5030465;27;20044;-81
2023/12/11 08:58:51;;;;;;;26.70;8.27;;;;;;;4.59;72.48;95233.69;5018619;27;20175;-81
2023/12/11 09:01:17;;;;;;;23.65;7.53;;;;;;;5.05;72.08;95299.19;5009406;27;20041;-79
2023/12/11 09:03:44;;;;;;;17.33;8.10;;;;;;;4.69;72.31;95218.13;5021436;27;20024;-80
2023/12/11 09:06:10;;;;;;;26.95;7.75;;;;;;;4.94;72.13;95263.25;5009576;28;20041;-80
2023/12/11 09:08:35;;;;;;;23.25;8.32;;;;;;;5.02;72.00;95289.16;5014829;28;20338;-80
2023/12/11 09:11:01;;;;;;;35.65;10.52;;;;;;;5.16;72.59;95284.41;5038267;27;20064;-81
2023/12/11 09:13:28;;;;;;;24.55;9.35;;;;;;;5.09;72.69;95256.66;5030469;27;20415;-80
2023/12/11 09:15:54;;;;;;;21.58;9.07;;;;;;;5.04;72.65;95225.81;5036858;28;20142;-81
2023/12/11 09:18:19;;;;;;;20.98;8.63;;;;;;;5.30;72.28;95266.50;5032279;27;20483;-80
2023/12/11 09:20:45;;;;;;;23.42;9.05;;;;;;;5.34;72.34;95257.88;5017107;28;20036;-81
2023/12/11 09:23:10;;;;;;;17.40;7.68;;;;;;;5.37;72.39;95249.53;5037126;27;20114;-79
2023/12/11 09:25:36;;;;;;;15.82;8.25;;;;;;;5.23;71.35;95229.84;5012741;27;20042;-78
2023/12/11 09:28:04;;;;;;;18.63;7.70;;;;;;;4.90;70.98;95171.97;5032720;27;20375;-79
2023/12/11 09:30:30;;;;;;;11.15;5.00;;;;;;;5.19;68.67;95239.22;5032749;27;20037;-79
2023/12/11 09:32:56;;;;;;;10.27;5.85;;;;;;;5.05;69.73;95225.59;5014071;28;20045;-80
2023/12/11 09:35:22;;;;;;;12.80;6.88;;;;;;;5.25;70.62;95255.91;5017173;28;20132;-79
2023/12/11 09:37:47;;;;;;;13.80;6.28;;;;;;;5.34;69.60;95251.84;5017583;28;20037;-78
2023/12/11 09:40:13;;;;;;;17.42;7.15;;;;;;;5.18;70.12;95216.63;5036139;27;20415;-79
2023/12/11 09:42:43;;;;;;;20.80;7.10;;;;;;;5.35;70.02;95220.03;5038823;27;20404;-79
2023/12/11 09:45:11;;;;;;;14.82;7.13;;;;;;;5.11;69.85;95189.66;5039855;27;20025;-80
2023/12/11 09:47:46;;;;;;;12.40;6.43;;;;;;;5.21;70.19;95212.69;5016488;27;20047;-81
2023/12/11 09:50:13;;;;;;;14.30;7.75;;;;;;;5.32;69.98;95217.91;5016153;28;20467;-80
2023/12/11 09:52:42;;;;;;;16.27;7.43;;;;;;;5.41;70.00;95219.09;5016416;28;20063;-82
2023/12/11 09:55:09;;;;;;;19.67;6.35;;;;;;;5.51;70.20;95222.88;5029518;28;20030;-81
2023/12/11 09:57:39;;;;;;;16.38;6.95;;;;;;;5.41;69.52;95199.88;5012100;27;20033;-82
2023/12/11 10:00:07;;;;;;;13.95;7.00;;;;;;;5.57;69.82;95216.69;5037103;27;20079;-82
2023/12/11 10:02:33;;;;;;;14.73;6.78;;;;;;;5.54;69.54;95207.44;5016963;28;20098;-82
2023/12/11 10:05:09;;;;;;;13.18;5.50;;;;;;;5.62;69.30;95200.97;5016587;28;20683;-81
2023/12/11 10:07:42;;;;;;;17.00;6.00;;;;;;;5.58;69.31;95207.72;5018473;28;20512;-83
2023/12/11 10:10:25;;;;;;;17.17;7.40;;;;;;;5.75;69.04;95211.16;5013659;28;20355;-80
2023/12/11 10:12:51;;;;;;;13.05;5.88;;;;;;;6.29;66.89;95198.97;5017390;28;20732;-82
2023/12/11 10:15:25;;;;;;;11.15;5.95;;;;;;;7.07;65.08;95189.75;5033246;27;20037;-80
2023/12/11 10:18:06;;;;;;;13.35;6.55;;;;;;;8.03;62.56;95200.16;5031652;27;20040;-82
2023/12/11 10:20:33;;;;;;;16.08;5.90;;;;;;;8.74;58.28;95188.06;5016008;27;20676;-79
2023/12/11 10:23:18;;;;;;;12.23;5.30;;;;;;;9.31;56.31;95165.09;5034386;28;20037;-81
2023/12/11 10:25:45;;;;;;;15.18;5.28;;;;;;;10.23;53.91;95183.22;5009118;28;20021;-79
2023/12/11 10:28:13;;;;;;;12.63;5.28;;;;;;;10.74;52.47;95198.91;5035195;28;20130;-80
2023/12/11 10:30:59;;;;;;;16.30;6.47;;;;;;;10.99;50.76;95195.28;5023296;27;20030;-79
2023/12/11 10:33:27;;;;;;;14.43;4.88;;;;;;;11.10;49.46;95151.72;5012868;27;20128;-80
2023/12/11 10:36:07;;;;;;;11.65;5.18;;;;;;;11.25;48.96;95129.56;5028671;28;20065;-77
2023/12/11 10:38:33;;;;;;;9.50;4.70;;;;;;;11.56;48.05;95168.06;5011605;27;20548;-78
2023/12/11 10:40:58;;;;;;;10.20;4.72;;;;;;;11.43;48.38;95156.25;5038310;28;20127;-79
2023/12/11 10:43:24;;;;;;;16.25;5.10;;;;;;;11.57;48.49;95191.69;5034685;27;20414;-80
2023/12/11 10:45:50;;;;;;;10.43;5.20;;;;;;;11.57;48.71;95186.38;5095339;27;20530;-78
2023/12/11 10:48:15;;;;;;;10.65;5.30;;;;;;;11.02;48.76;95118.59;5007207;28;20113;-78
2023/12/11 10:50:42;;;;;;;13.77;5.63;;;;;;;11.35;48.96;95199.31;5027412;28;20025;-78
2023/12/11 10:53:08;;;;;;;8.95;4.25;;;;;;;10.82;49.95;95169.16;5032236;27;20033;-77
2023/12/11 10:55:36;;;;;;;11.23;4.90;;;;;;;10.38;50.74;95118.72;5033120;28;20029;-77
2023/12/11 10:58:03;;;;;;;15.18;5.63;;;;;;;10.24;51.01;95125.69;5035066;28;20185;-78
2023/12/11 11:00:31;;;;;;;15.63;6.35;;;;;;;10.09;52.36;95160.97;5000648;28;20553;-79
2023/12/11 11:02:58;;;;;;;17.10;5.20;;;;;;;9.60;53.36;95159.00;5037010;28;20070;-78
2023/12/11 11:05:27;;;;;;;10.70;4.75;;;;;;;9.75;53.56;95152.06;5022533;28;20578;-79
2023/12/11 11:07:57;;;;;;;10.43;4.68;;;;;;;9.55;53.54;95140.44;5021759;28;20413;-79
2023/12/11 11:10:27;;;;;;;8.27;4.40;;;;;;;9.51;54.25;95149.19;5032041;27;20029;-78
2023/12/11 11:13:02;;;;;;;10.65;5.25;;;;;;;9.23;55.44;95140.72;5021878;27;20034;-79
2023/12/11 11:15:28;;;;;;;20.75;7.75;;;;;;;8.98;55.63;95113.50;5021520;27;20534;-81
2023/12/11 11:18:06;;;;;;;8.23;5.05;;;;;;;9.39;54.42;95140.72;5030566;27;20093;-81
2023/12/11 11:20:33;;;;;;;8.15;4.30;;;;;;;8.79;54.64;95057.69;5018835;28;20037;-79
2023/12/11 11:23:26;;;;;;;16.33;5.30;;;;;;;9.34;55.35;95132.78;5035745;27;20672;-80
2023/12/11 11:25:52;;;;;;;14.13;5.82;;;;;;;8.82;55.99;95079.13;5013731;28;20093;-79
2023/12/11 11:28:50;;;;;;;14.13;5.75;;;;;;;8.90;55.82;95099.75;4999967;28;20550;-79
2023/12/11 11:31:16;;;;;;;9.90;4.95;;;;;;;8.81;55.20;95089.97;4974265;28;20065;-78
2023/12/11 11:33:52;;;;;;;14.50;5.10;;;;;;;9.24;55.11;95133.59;4966412;28;20870;-80
2023/12/11 11:36:51;;;;;;;12.32;4.85;;;;;;;7.31;55.29;94839.38;4993222;28;20420;-80